Terminal Aerodrome Forecast
Issued by NWS

Home | Current Version | Previous Version | Text Only | Print | Product List | Glossary On
Versions: 1 2 3 4 5 6 7 8 9 10 11 12 13 14 15 16 17 18 19 20
851
FTUS43 KDVN 230520
TAFCID
TAF
KCID 230520Z 2306/2406 16007KT P6SM SKC
     FM231500 17010G17KT P6SM FEW045 SCT250
     FM240000 15007KT P6SM VCSH BKN050 OVC120 PROB30 2400/2406 3SM
      SHRA BKN035 OVC060=

USA.gov is the U.S. government's official web portal to all federal, state and local government web resources and services.